sensor_id;sensor_type;location;lat;lon;timestamp;temperature;humidity
30174;DHT22;16985;50.814;8.530;2023-04-03T00:00:29;3.60;99.90
30174;DHT22;16985;50.814;8.530;2023-04-03T00:02:56;3.40;99.90
30174;DHT22;16985;50.814;8.530;2023-04-03T00:05:22;3.50;99.90
30174;DHT22;16985;50.814;8.530;2023-04-03T00:07:48;3.60;99.90
30174;DHT22;16985;50.814;8.530;2023-04-03T00:10:15;3.50;99.90
30174;DHT22;16985;50.814;8.530;2023-04-03T00:12:41;3.60;99.90
30174;DHT22;16985;50.814;8.530;2023-04-03T00:15:07;3.60;99.90
30174;DHT22;16985;50.814;8.530;2023-04-03T00:17:34;3.60;99.90
30174;DHT22;16985;50.814;8.530;2023-04-03T00:19:59;3.60;99.90
30174;DHT22;16985;50.814;8.530;2023-04-03T00:22:25;3.50;99.90
30174;DHT22;16985;50.814;8.530;2023-04-03T00:24:54;5.00;99.90
30174;DHT22;16985;50.814;8.530;2023-04-03T00:27:20;3.50;99.90
30174;DHT22;16985;50.814;8.530;2023-04-03T00:29:46;3.60;99.90
30174;DHT22;16985;50.814;8.530;2023-04-03T00:32:13;3.60;99.90
30174;DHT22;16985;50.814;8.530;2023-04-03T00:34:39;3.60;99.90
30174;DHT22;16985;50.814;8.530;2023-04-03T00:37:05;3.60;99.90
30174;DHT22;16985;50.814;8.530;2023-04-03T00:39:31;3.50;99.90
30174;DHT22;16985;50.814;8.530;2023-04-03T00:41:57;3.60;99.90
30174;DHT22;16985;50.814;8.530;2023-04-03T00:47:13;3.50;99.90
30174;DHT22;16985;50.814;8.530;2023-04-03T00:49:43;3.40;99.90
30174;DHT22;16985;50.814;8.530;2023-04-03T00:52:14;3.50;99.90
30174;DHT22;16985;50.814;8.530;2023-04-03T00:54:43;3.40;99.90
30174;DHT22;16985;50.814;8.530;2023-04-03T00:57:10;3.30;99.90
30174;DHT22;16985;50.814;8.530;2023-04-03T00:59:40;3.40;99.90
30174;DHT22;16985;50.814;8.530;2023-04-03T01:02:09;3.30;99.90
30174;DHT22;16985;50.814;8.530;2023-04-03T01:04:37;3.30;99.90
30174;DHT22;16985;50.814;8.530;2023-04-03T01:07:20;3.30;99.90
30174;DHT22;16985;50.814;8.530;2023-04-03T01:09:51;3.30;99.90
30174;DHT22;16985;50.814;8.530;2023-04-03T01:12:21;3.20;99.90
30174;DHT22;16985;50.814;8.530;2023-04-03T01:14:57;3.20;99.90
30174;DHT22;16985;50.814;8.530;2023-04-03T01:17:32;3.20;99.90
30174;DHT22;16985;50.814;8.530;2023-04-03T01:25:41;3.10;99.90
30174;DHT22;16985;50.814;8.530;2023-04-03T01:28:28;3.00;99.90
30174;DHT22;16985;50.814;8.530;2023-04-03T01:31:22;3.00;99.90
30174;DHT22;16985;50.814;8.530;2023-04-03T01:33:51;3.10;99.90
30174;DHT22;16985;50.814;8.530;2023-04-03T01:36:21;3.00;99.90
30174;DHT22;16985;50.814;8.530;2023-04-03T01:38:55;3.00;99.90
30174;DHT22;16985;50.814;8.530;2023-04-03T01:41:22;2.90;99.90
30174;DHT22;16985;50.814;8.530;2023-04-03T01:43:54;2.90;99.90
30174;DHT22;16985;50.814;8.530;2023-04-03T01:46:20;3.60;99.90
30174;DHT22;16985;50.814;8.530;2023-04-03T01:48:46;2.80;99.90
30174;DHT22;16985;50.814;8.530;2023-04-03T01:51:12;2.80;99.90
30174;DHT22;16985;50.814;8.530;2023-04-03T01:53:38;2.90;99.90
30174;DHT22;16985;50.814;8.530;2023-04-03T01:56:04;2.80;99.90
30174;DHT22;16985;50.814;8.530;2023-04-03T01:58:31;2.80;99.90
30174;DHT22;16985;50.814;8.530;2023-04-03T02:00:57;2.80;99.90
30174;DHT22;16985;50.814;8.530;2023-04-03T02:03:23;2.80;99.90
30174;DHT22;16985;50.814;8.530;2023-04-03T02:05:49;4.30;99.90
30174;DHT22;16985;50.814;8.530;2023-04-03T02:08:15;3.80;99.90
30174;DHT22;16985;50.814;8.530;2023-04-03T02:10:47;2.80;99.90
30174;DHT22;16985;50.814;8.530;2023-04-03T02:13:15;2.70;99.90
30174;DHT22;16985;50.814;8.530;2023-04-03T02:15:41;2.70;99.90
30174;DHT22;16985;50.814;8.530;2023-04-03T02:18:07;2.70;99.90
30174;DHT22;16985;50.814;8.530;2023-04-03T02:20:33;2.70;99.90
30174;DHT22;16985;50.814;8.530;2023-04-03T02:23:00;2.70;99.90
30174;DHT22;16985;50.814;8.530;2023-04-03T02:25:27;2.70;99.90
30174;DHT22;16985;50.814;8.530;2023-04-03T02:27:52;2.70;99.90
30174;DHT22;16985;50.814;8.530;2023-04-03T02:30:18;2.70;99.90
30174;DHT22;16985;50.814;8.530;2023-04-03T02:32:44;2.60;99.90
30174;DHT22;16985;50.814;8.530;2023-04-03T02:35:11;2.60;99.90
30174;DHT22;16985;50.814;8.530;2023-04-03T02:37:38;2.60;99.90
30174;DHT22;16985;50.814;8.530;2023-04-03T02:40:05;2.60;99.90
30174;DHT22;16985;50.814;8.530;2023-04-03T02:42:32;2.60;99.90
30174;DHT22;16985;50.814;8.530;2023-04-03T02:44:57;4.20;99.90
30174;DHT22;16985;50.814;8.530;2023-04-03T02:47:26;2.60;99.90
30174;DHT22;16985;50.814;8.530;2023-04-03T02:49:53;2.50;99.90
30174;DHT22;16985;50.814;8.530;2023-04-03T02:52:20;2.50;99.90
30174;DHT22;16985;50.814;8.530;2023-04-03T02:54:47;2.50;99.90
30174;DHT22;16985;50.814;8.530;2023-04-03T02:57:13;2.40;99.90
30174;DHT22;16985;50.814;8.530;2023-04-03T02:59:39;2.40;99.90
30174;DHT22;16985;50.814;8.530;2023-04-03T03:02:07;2.40;99.90
30174;DHT22;16985;50.814;8.530;2023-04-03T03:04:34;2.30;99.90
30174;DHT22;16985;50.814;8.530;2023-04-03T03:07:00;2.30;99.90
30174;DHT22;16985;50.814;8.530;2023-04-03T03:09:29;2.30;99.90
30174;DHT22;16985;50.814;8.530;2023-04-03T03:11:55;2.50;99.90
30174;DHT22;16985;50.814;8.530;2023-04-03T03:14:22;2.20;99.90
30174;DHT22;16985;50.814;8.530;2023-04-03T03:16:48;2.20;99.90
30174;DHT22;16985;50.814;8.530;2023-04-03T03:19:14;2.10;99.90
30174;DHT22;16985;50.814;8.530;2023-04-03T03:21:40;2.20;99.90
30174;DHT22;16985;50.814;8.530;2023-04-03T03:24:06;2.20;99.90
30174;DHT22;16985;50.814;8.530;2023-04-03T03:26:32;2.30;99.90
30174;DHT22;16985;50.814;8.530;2023-04-03T03:28:58;2.30;99.90
30174;DHT22;16985;50.814;8.530;2023-04-03T03:31:25;2.30;99.90
30174;DHT22;16985;50.814;8.530;2023-04-03T03:33:51;2.30;99.90
30174;DHT22;16985;50.814;8.530;2023-04-03T03:36:18;2.30;99.90
30174;DHT22;16985;50.814;8.530;2023-04-03T03:38:43;2.30;99.90
30174;DHT22;16985;50.814;8.530;2023-04-03T03:41:09;2.30;99.90
30174;DHT22;16985;50.814;8.530;2023-04-03T03:43:36;2.20;99.90
30174;DHT22;16985;50.814;8.530;2023-04-03T03:46:04;2.20;99.90
30174;DHT22;16985;50.814;8.530;2023-04-03T03:48:30;2.20;99.90
30174;DHT22;16985;50.814;8.530;2023-04-03T03:50:56;2.20;99.90
30174;DHT22;16985;50.814;8.530;2023-04-03T03:53:26;2.20;99.90
30174;DHT22;16985;50.814;8.530;2023-04-03T03:55:55;2.10;99.90
30174;DHT22;16985;50.814;8.530;2023-04-03T03:58:23;2.10;99.90
30174;DHT22;16985;50.814;8.530;2023-04-03T04:00:49;2.10;99.90
30174;DHT22;16985;50.814;8.530;2023-04-03T04:03:15;2.10;99.90
30174;DHT22;16985;50.814;8.530;2023-04-03T04:05:44;3.10;99.90
30174;DHT22;16985;50.814;8.530;2023-04-03T04:08:10;2.10;99.90
30174;DHT22;16985;50.814;8.530;2023-04-03T04:10:37;2.00;99.90
30174;DHT22;16985;50.814;8.530;2023-04-03T04:13:04;2.00;99.90
30174;DHT22;16985;50.814;8.530;2023-04-03T04:15:30;2.30;99.90
30174;DHT22;16985;50.814;8.530;2023-04-03T04:17:56;2.00;99.90
30174;DHT22;16985;50.814;8.530;2023-04-03T04:20:22;1.90;99.90
30174;DHT22;16985;50.814;8.530;2023-04-03T04:22:48;1.90;99.90
30174;DHT22;16985;50.814;8.530;2023-04-03T04:25:16;1.90;99.90
30174;DHT22;16985;50.814;8.530;2023-04-03T04:27:42;1.90;99.90
30174;DHT22;16985;50.814;8.530;2023-04-03T04:30:09;1.70;99.90
30174;DHT22;16985;50.814;8.530;2023-04-03T04:32:37;1.80;99.90
30174;DHT22;16985;50.814;8.530;2023-04-03T04:35:03;1.80;99.90
30174;DHT22;16985;50.814;8.530;2023-04-03T04:37:32;1.80;99.90
30174;DHT22;16985;50.814;8.530;2023-04-03T04:39:58;1.70;99.90
30174;DHT22;16985;50.814;8.530;2023-04-03T04:42:24;1.80;99.90
30174;DHT22;16985;50.814;8.530;2023-04-03T04:44:50;1.70;99.90
30174;DHT22;16985;50.814;8.530;2023-04-03T04:47:16;1.70;99.90
30174;DHT22;16985;50.814;8.530;2023-04-03T04:49:42;1.70;99.90
30174;DHT22;16985;50.814;8.530;2023-04-03T04:52:09;1.60;99.90
30174;DHT22;16985;50.814;8.530;2023-04-03T04:54:36;1.60;99.90
30174;DHT22;16985;50.814;8.530;2023-04-03T04:57:01;1.60;99.90
30174;DHT22;16985;50.814;8.530;2023-04-03T04:59:28;1.50;99.90
30174;DHT22;16985;50.814;8.530;2023-04-03T05:01:57;1.60;99.90
30174;DHT22;16985;50.814;8.530;2023-04-03T05:04:23;1.50;99.90
30174;DHT22;16985;50.814;8.530;2023-04-03T05:06:53;1.60;99.90
30174;DHT22;16985;50.814;8.530;2023-04-03T05:09:23;1.60;99.90
30174;DHT22;16985;50.814;8.530;2023-04-03T05:11:50;1.50;99.90
30174;DHT22;16985;50.814;8.530;2023-04-03T05:14:18;1.50;99.90
30174;DHT22;16985;50.814;8.530;2023-04-03T05:16:45;1.50;99.90
30174;DHT22;16985;50.814;8.530;2023-04-03T05:19:11;1.50;99.90
30174;DHT22;16985;50.814;8.530;2023-04-03T05:21:39;1.40;99.90
30174;DHT22;16985;50.814;8.530;2023-04-03T05:24:10;1.40;99.90
30174;DHT22;16985;50.814;8.530;2023-04-03T05:26:39;1.40;99.90
30174;DHT22;16985;50.814;8.530;2023-04-03T05:29:05;1.40;99.90
30174;DHT22;16985;50.814;8.530;2023-04-03T05:31:31;1.30;99.90
30174;DHT22;16985;50.814;8.530;2023-04-03T05:33:58;1.40;99.90
30174;DHT22;16985;50.814;8.530;2023-04-03T05:36:25;1.30;99.90
30174;DHT22;16985;50.814;8.530;2023-04-03T05:38:56;1.30;99.90
30174;DHT22;16985;50.814;8.530;2023-04-03T05:41:23;1.30;99.90
30174;DHT22;16985;50.814;8.530;2023-04-03T05:43:49;1.30;99.90
30174;DHT22;16985;50.814;8.530;2023-04-03T05:46:18;1.30;99.90
30174;DHT22;16985;50.814;8.530;2023-04-03T05:48:48;1.30;99.90
30174;DHT22;16985;50.814;8.530;2023-04-03T05:51:22;1.90;99.90
30174;DHT22;16985;50.814;8.530;2023-04-03T05:53:59;1.30;99.90
30174;DHT22;16985;50.814;8.530;2023-04-03T05:56:29;1.30;99.90
30174;DHT22;16985;50.814;8.530;2023-04-03T05:58:55;0.40;99.90
30174;DHT22;16985;50.814;8.530;2023-04-03T06:01:22;1.30;99.90
30174;DHT22;16985;50.814;8.530;2023-04-03T06:03:48;1.30;99.90
30174;DHT22;16985;50.814;8.530;2023-04-03T06:06:14;1.30;99.90
30174;DHT22;16985;50.814;8.530;2023-04-03T06:08:41;1.30;99.90
30174;DHT22;16985;50.814;8.530;2023-04-03T06:11:06;1.20;99.90
30174;DHT22;16985;50.814;8.530;2023-04-03T06:13:34;1.20;99.90
30174;DHT22;16985;50.814;8.530;2023-04-03T06:16:01;1.20;99.90
30174;DHT22;16985;50.814;8.530;2023-04-03T06:18:27;1.30;99.90
30174;DHT22;16985;50.814;8.530;2023-04-03T06:20:54;1.30;99.90
30174;DHT22;16985;50.814;8.530;2023-04-03T06:23:20;1.30;99.90
30174;DHT22;16985;50.814;8.530;2023-04-03T06:25:46;1.30;99.90
30174;DHT22;16985;50.814;8.530;2023-04-03T06:28:12;1.30;99.90
30174;DHT22;16985;50.814;8.530;2023-04-03T06:30:38;1.20;99.90
30174;DHT22;16985;50.814;8.530;2023-04-03T06:33:03;1.30;99.90
30174;DHT22;16985;50.814;8.530;2023-04-03T06:35:30;1.30;99.90
30174;DHT22;16985;50.814;8.530;2023-04-03T06:37:56;1.20;99.90
30174;DHT22;16985;50.814;8.530;2023-04-03T06:40:24;1.20;99.90
30174;DHT22;16985;50.814;8.530;2023-04-03T06:42:51;1.30;99.90
30174;DHT22;16985;50.814;8.530;2023-04-03T06:45:19;1.20;99.90
30174;DHT22;16985;50.814;8.530;2023-04-03T06:47:45;1.20;99.90
30174;DHT22;16985;50.814;8.530;2023-04-03T06:50:11;1.20;99.90
30174;DHT22;16985;50.814;8.530;2023-04-03T06:52:39;1.30;99.90
30174;DHT22;16985;50.814;8.530;2023-04-03T06:55:06;1.30;99.90
30174;DHT22;16985;50.814;8.530;2023-04-03T06:57:32;1.30;99.90
30174;DHT22;16985;50.814;8.530;2023-04-03T06:59:58;1.30;99.90
30174;DHT22;16985;50.814;8.530;2023-04-03T07:02:24;2.30;99.90
30174;DHT22;16985;50.814;8.530;2023-04-03T07:04:49;1.30;99.90
30174;DHT22;16985;50.814;8.530;2023-04-03T07:07:16;1.30;99.90
30174;DHT22;16985;50.814;8.530;2023-04-03T07:09:43;1.30;99.90
30174;DHT22;16985;50.814;8.530;2023-04-03T07:12:09;1.30;99.90
30174;DHT22;16985;50.814;8.530;2023-04-03T07:14:34;1.50;99.90
30174;DHT22;16985;50.814;8.530;2023-04-03T07:17:00;1.40;99.90
30174;DHT22;16985;50.814;8.530;2023-04-03T07:19:26;1.40;99.90
30174;DHT22;16985;50.814;8.530;2023-04-03T07:21:53;1.40;99.90
30174;DHT22;16985;50.814;8.530;2023-04-03T07:24:20;1.40;99.90
30174;DHT22;16985;50.814;8.530;2023-04-03T07:26:52;1.40;99.90
30174;DHT22;16985;50.814;8.530;2023-04-03T07:29:18;1.40;99.90
30174;DHT22;16985;50.814;8.530;2023-04-03T07:31:45;1.40;99.90
30174;DHT22;16985;50.814;8.530;2023-04-03T07:34:11;1.40;99.90
30174;DHT22;16985;50.814;8.530;2023-04-03T07:36:37;1.40;99.90
30174;DHT22;16985;50.814;8.530;2023-04-03T07:39:03;1.50;99.90
30174;DHT22;16985;50.814;8.530;2023-04-03T07:41:29;1.50;99.90
30174;DHT22;16985;50.814;8.530;2023-04-03T07:43:55;1.40;99.90
30174;DHT22;16985;50.814;8.530;2023-04-03T07:46:22;1.50;99.90
30174;DHT22;16985;50.814;8.530;2023-04-03T07:48:48;1.60;99.90
30174;DHT22;16985;50.814;8.530;2023-04-03T07:51:14;1.60;99.90
30174;DHT22;16985;50.814;8.530;2023-04-03T07:53:40;1.70;99.90
30174;DHT22;16985;50.814;8.530;2023-04-03T07:56:06;1.70;99.90
30174;DHT22;16985;50.814;8.530;2023-04-03T07:58:32;1.80;99.90
30174;DHT22;16985;50.814;8.530;2023-04-03T08:00:59;3.30;99.90
30174;DHT22;16985;50.814;8.530;2023-04-03T08:03:25;1.80;99.90
30174;DHT22;16985;50.814;8.530;2023-04-03T08:05:51;1.90;99.90
30174;DHT22;16985;50.814;8.530;2023-04-03T08:08:19;2.00;99.90
30174;DHT22;16985;50.814;8.530;2023-04-03T08:10:51;2.00;99.90
30174;DHT22;16985;50.814;8.530;2023-04-03T08:13:19;2.10;99.90
30174;DHT22;16985;50.814;8.530;2023-04-03T08:15:45;2.10;99.90
30174;DHT22;16985;50.814;8.530;2023-04-03T08:18:12;2.10;99.90
30174;DHT22;16985;50.814;8.530;2023-04-03T08:20:40;3.80;99.90
30174;DHT22;16985;50.814;8.530;2023-04-03T08:23:07;4.40;99.90
30174;DHT22;16985;50.814;8.530;2023-04-03T08:25:40;2.30;99.90
30174;DHT22;16985;50.814;8.530;2023-04-03T08:28:08;2.30;99.90
30174;DHT22;16985;50.814;8.530;2023-04-03T08:30:35;2.30;99.90
30174;DHT22;16985;50.814;8.530;2023-04-03T08:33:02;2.20;99.90
30174;DHT22;16985;50.814;8.530;2023-04-03T08:35:28;2.30;99.90
30174;DHT22;16985;50.814;8.530;2023-04-03T08:37:53;2.30;99.90
30174;DHT22;16985;50.814;8.530;2023-04-03T08:40:19;2.30;99.90
30174;DHT22;16985;50.814;8.530;2023-04-03T08:45:55;2.30;99.90
30174;DHT22;16985;50.814;8.530;2023-04-03T08:48:27;2.40;99.90
30174;DHT22;16985;50.814;8.530;2023-04-03T08:50:59;2.60;99.90
30174;DHT22;16985;50.814;8.530;2023-04-03T08:53:32;2.70;99.90
30174;DHT22;16985;50.814;8.530;2023-04-03T08:56:04;2.80;99.90
30174;DHT22;16985;50.814;8.530;2023-04-03T08:58:41;2.90;99.90
30174;DHT22;16985;50.814;8.530;2023-04-03T09:01:29;3.00;99.90
30174;DHT22;16985;50.814;8.530;2023-04-03T09:04:09;3.20;99.90
30174;DHT22;16985;50.814;8.530;2023-04-03T09:06:38;3.30;99.00
30174;DHT22;16985;50.814;8.530;2023-04-03T09:12:00;3.40;97.70
30174;DHT22;16985;50.814;8.530;2023-04-03T09:14:40;3.50;97.40
30174;DHT22;16985;50.814;8.530;2023-04-03T09:25:54;4.00;96.60
30174;DHT22;16985;50.814;8.530;2023-04-03T09:28:24;4.10;94.90
30174;DHT22;16985;50.814;8.530;2023-04-03T09:30:50;4.20;94.00
30174;DHT22;16985;50.814;8.530;2023-04-03T09:33:16;4.20;93.50
30174;DHT22;16985;50.814;8.530;2023-04-03T09:35:43;4.30;92.60
30174;DHT22;16985;50.814;8.530;2023-04-03T09:40:42;4.50;92.60
30174;DHT22;16985;50.814;8.530;2023-04-03T09:43:25;4.50;92.40
30174;DHT22;16985;50.814;8.530;2023-04-03T09:45:53;5.40;92.50
30174;DHT22;16985;50.814;8.530;2023-04-03T09:48:22;4.70;92.10
30174;DHT22;16985;50.814;8.530;2023-04-03T09:53:36;4.90;91.60
30174;DHT22;16985;50.814;8.530;2023-04-03T09:58:45;5.10;91.40
30174;DHT22;16985;50.814;8.530;2023-04-03T10:04:11;5.00;89.00
30174;DHT22;16985;50.814;8.530;2023-04-03T10:09:30;4.90;88.50
30174;DHT22;16985;50.814;8.530;2023-04-03T10:12:19;4.90;88.60
30174;DHT22;16985;50.814;8.530;2023-04-03T10:14:59;4.70;88.60
30174;DHT22;16985;50.814;8.530;2023-04-03T10:20:26;4.80;86.40
30174;DHT22;16985;50.814;8.530;2023-04-03T10:23:05;4.70;85.80
30174;DHT22;16985;50.814;8.530;2023-04-03T10:28:56;4.70;84.80
30174;DHT22;16985;50.814;8.530;2023-04-03T10:31:33;4.70;84.80
30174;DHT22;16985;50.814;8.530;2023-04-03T10:34:21;4.70;84.90
30174;DHT22;16985;50.814;8.530;2023-04-03T10:37:13;4.70;85.80
30174;DHT22;16985;50.814;8.530;2023-04-03T10:51:11;5.20;86.10
30174;DHT22;16985;50.814;8.530;2023-04-03T10:56:41;5.50;84.30
30174;DHT22;16985;50.814;8.530;2023-04-03T10:59:37;7.30;83.20
30174;DHT22;16985;50.814;8.530;2023-04-03T11:05:13;5.90;81.40
30174;DHT22;16985;50.814;8.530;2023-04-03T11:07:51;4.80;81.50
30174;DHT22;16985;50.814;8.530;2023-04-03T11:10:35;8.60;83.70
30174;DHT22;16985;50.814;8.530;2023-04-03T11:13:15;4.40;81.60
30174;DHT22;16985;50.814;8.530;2023-04-03T11:15:45;6.60;82.30
30174;DHT22;16985;50.814;8.530;2023-04-03T11:18:40;8.50;82.70
30174;DHT22;16985;50.814;8.530;2023-04-03T11:21:28;6.90;82.50
30174;DHT22;16985;50.814;8.530;2023-04-03T11:24:20;7.90;79.80
30174;DHT22;16985;50.814;8.530;2023-04-03T11:26:56;7.50;81.70
30174;DHT22;16985;50.814;8.530;2023-04-03T11:29:37;7.20;77.60
30174;DHT22;16985;50.814;8.530;2023-04-03T11:34:47;7.40;75.10
30174;DHT22;16985;50.814;8.530;2023-04-03T11:37:45;7.50;76.40
30174;DHT22;16985;50.814;8.530;2023-04-03T11:42:42;9.30;78.50
30174;DHT22;16985;50.814;8.530;2023-04-03T11:45:49;7.90;79.30
30174;DHT22;16985;50.814;8.530;2023-04-03T11:53:42;8.60;79.50
30174;DHT22;16985;50.814;8.530;2023-04-03T12:02:02;9.10;77.20
30174;DHT22;16985;50.814;8.530;2023-04-03T12:04:39;9.30;76.70
30174;DHT22;16985;50.814;8.530;2023-04-03T12:08:21;9.10;74.10
30174;DHT22;16985;50.814;8.530;2023-04-03T12:16:24;9.50;75.80
30174;DHT22;16985;50.814;8.530;2023-04-03T12:18:54;9.60;73.70
30174;DHT22;16985;50.814;8.530;2023-04-03T12:40:48;9.90;70.50
30174;DHT22;16985;50.814;8.530;2023-04-03T12:43:27;9.90;70.50
30174;DHT22;16985;50.814;8.530;2023-04-03T12:48:48;10.00;68.20
30174;DHT22;16985;50.814;8.530;2023-04-03T12:51:21;10.10;69.50
30174;DHT22;16985;50.814;8.530;2023-04-03T12:53:54;10.20;70.20
30174;DHT22;16985;50.814;8.530;2023-04-03T12:56:29;10.20;70.60
30174;DHT22;16985;50.814;8.530;2023-04-03T13:02:01;10.30;68.70
30174;DHT22;16985;50.814;8.530;2023-04-03T13:04:30;10.30;68.50
30174;DHT22;16985;50.814;8.530;2023-04-03T13:06:57;10.20;68.90
30174;DHT22;16985;50.814;8.530;2023-04-03T13:09:30;10.20;68.80
30174;DHT22;16985;50.814;8.530;2023-04-03T13:12:03;10.10;68.40
30174;DHT22;16985;50.814;8.530;2023-04-03T13:14:37;10.10;69.20
30174;DHT22;16985;50.814;8.530;2023-04-03T13:17:12;10.00;67.40
30174;DHT22;16985;50.814;8.530;2023-04-03T13:19:40;9.90;68.00
30174;DHT22;16985;50.814;8.530;2023-04-03T13:22:36;9.90;68.70
30174;DHT22;16985;50.814;8.530;2023-04-03T13:25:26;9.60;73.70
30174;DHT22;16985;50.814;8.530;2023-04-03T13:27:56;9.70;68.30
30174;DHT22;16985;50.814;8.530;2023-04-03T13:30:28;11.50;69.20
30174;DHT22;16985;50.814;8.530;2023-04-03T13:32:57;9.40;66.40
30174;DHT22;16985;50.814;8.530;2023-04-03T13:35:37;9.20;66.20
30174;DHT22;16985;50.814;8.530;2023-04-03T13:43:22;9.20;68.00
30174;DHT22;16985;50.814;8.530;2023-04-03T13:48:49;9.40;67.60
30174;DHT22;16985;50.814;8.530;2023-04-03T13:51:23;9.60;67.80
30174;DHT22;16985;50.814;8.530;2023-04-03T13:53:57;9.70;66.90
30174;DHT22;16985;50.814;8.530;2023-04-03T13:59:05;9.70;65.60
30174;DHT22;16985;50.814;8.530;2023-04-03T14:04:31;9.90;65.60
30174;DHT22;16985;50.814;8.530;2023-04-03T14:06:59;9.90;64.90
30174;DHT22;16985;50.814;8.530;2023-04-03T14:09:27;10.00;64.90
30174;DHT22;16985;50.814;8.530;2023-04-03T14:11:57;10.10;64.50
30174;DHT22;16985;50.814;8.530;2023-04-03T14:14:31;11.90;64.80
30174;DHT22;16985;50.814;8.530;2023-04-03T14:17:02;10.10;63.60
30174;DHT22;16985;50.814;8.530;2023-04-03T14:19:34;11.80;63.40
30174;DHT22;16985;50.814;8.530;2023-04-03T14:22:28;10.00;62.30
30174;DHT22;16985;50.814;8.530;2023-04-03T14:24:55;12.00;63.20
30174;DHT22;16985;50.814;8.530;2023-04-03T14:27:39;9.80;61.80
30174;DHT22;16985;50.814;8.530;2023-04-03T14:30:12;9.80;62.00
30174;DHT22;16985;50.814;8.530;2023-04-03T14:32:41;9.80;62.40
30174;DHT22;16985;50.814;8.530;2023-04-03T14:35:07;9.70;62.30
30174;DHT22;16985;50.814;8.530;2023-04-03T14:37:33;9.70;62.50
30174;DHT22;16985;50.814;8.530;2023-04-03T14:40:01;9.70;62.30
30174;DHT22;16985;50.814;8.530;2023-04-03T14:42:32;8.00;61.50
30174;DHT22;16985;50.814;8.530;2023-04-03T14:45:00;9.60;63.00
30174;DHT22;16985;50.814;8.530;2023-04-03T14:47:29;9.60;63.20
30174;DHT22;16985;50.814;8.530;2023-04-03T14:49:56;9.70;63.80
30174;DHT22;16985;50.814;8.530;2023-04-03T14:52:27;11.30;64.50
30174;DHT22;16985;50.814;8.530;2023-04-03T14:54:59;9.70;63.30
30174;DHT22;16985;50.814;8.530;2023-04-03T14:57:28;9.70;63.30
30174;DHT22;16985;50.814;8.530;2023-04-03T14:59:54;9.70;63.10
30174;DHT22;16985;50.814;8.530;2023-04-03T15:02:32;10.90;63.60
30174;DHT22;16985;50.814;8.530;2023-04-03T15:05:01;9.60;62.10
30174;DHT22;16985;50.814;8.530;2023-04-03T15:07:32;9.60;63.00
30174;DHT22;16985;50.814;8.530;2023-04-03T15:10:20;9.50;63.30
30174;DHT22;16985;50.814;8.530;2023-04-03T15:12:51;9.30;63.50
30174;DHT22;16985;50.814;8.530;2023-04-03T15:15:19;9.20;63.20
30174;DHT22;16985;50.814;8.530;2023-04-03T15:17:47;9.10;63.90
30174;DHT22;16985;50.814;8.530;2023-04-03T15:20:21;9.00;65.10
30174;DHT22;16985;50.814;8.530;2023-04-03T15:22:48;9.60;65.50
30174;DHT22;16985;50.814;8.530;2023-04-03T15:25:15;10.00;66.10
30174;DHT22;16985;50.814;8.530;2023-04-03T15:27:41;9.10;64.80
30174;DHT22;16985;50.814;8.530;2023-04-03T15:30:13;8.90;65.10
30174;DHT22;16985;50.814;8.530;2023-04-03T15:32:40;8.90;64.90
30174;DHT22;16985;50.814;8.530;2023-04-03T15:35:06;8.80;64.20
30174;DHT22;16985;50.814;8.530;2023-04-03T15:37:32;8.70;64.10
30174;DHT22;16985;50.814;8.530;2023-04-03T15:39:58;9.10;64.10
30174;DHT22;16985;50.814;8.530;2023-04-03T15:42:24;8.50;63.90
30174;DHT22;16985;50.814;8.530;2023-04-03T15:44:50;8.40;64.90
30174;DHT22;16985;50.814;8.530;2023-04-03T15:47:16;8.30;66.40
30174;DHT22;16985;50.814;8.530;2023-04-03T15:49:42;8.20;66.80
30174;DHT22;16985;50.814;8.530;2023-04-03T15:52:08;8.10;67.10
30174;DHT22;16985;50.814;8.530;2023-04-03T15:54:33;8.40;67.20
30174;DHT22;16985;50.814;8.530;2023-04-03T15:56:59;7.90;67.10
30174;DHT22;16985;50.814;8.530;2023-04-03T15:59:27;8.00;67.60
30174;DHT22;16985;50.814;8.530;2023-04-03T16:01:54;8.00;67.50
30174;DHT22;16985;50.814;8.530;2023-04-03T16:04:20;7.90;67.30
30174;DHT22;16985;50.814;8.530;2023-04-03T16:06:46;7.90;67.10
30174;DHT22;16985;50.814;8.530;2023-04-03T16:09:14;7.90;67.10
30174;DHT22;16985;50.814;8.530;2023-04-03T16:11:40;7.80;66.50
30174;DHT22;16985;50.814;8.530;2023-04-03T16:14:09;7.70;66.80
30174;DHT22;16985;50.814;8.530;2023-04-03T16:16:35;7.90;68.00
30174;DHT22;16985;50.814;8.530;2023-04-03T16:19:02;7.50;67.60
30174;DHT22;16985;50.814;8.530;2023-04-03T16:21:28;7.30;67.50
30174;DHT22;16985;50.814;8.530;2023-04-03T16:23:57;7.40;68.70
30174;DHT22;16985;50.814;8.530;2023-04-03T16:26:23;7.40;68.20
30174;DHT22;16985;50.814;8.530;2023-04-03T16:28:50;7.40;68.80
30174;DHT22;16985;50.814;8.530;2023-04-03T16:31:17;7.30;68.00
30174;DHT22;16985;50.814;8.530;2023-04-03T16:33:42;7.30;68.70
30174;DHT22;16985;50.814;8.530;2023-04-03T16:36:09;7.30;68.90
30174;DHT22;16985;50.814;8.530;2023-04-03T16:38:36;7.20;69.50
30174;DHT22;16985;50.814;8.530;2023-04-03T16:41:01;7.20;69.60
30174;DHT22;16985;50.814;8.530;2023-04-03T16:43:30;7.10;68.70
30174;DHT22;16985;50.814;8.530;2023-04-03T16:45:57;9.30;71.20
30174;DHT22;16985;50.814;8.530;2023-04-03T16:48:23;7.00;69.80
30174;DHT22;16985;50.814;8.530;2023-04-03T16:50:49;6.90;69.60
30174;DHT22;16985;50.814;8.530;2023-04-03T16:53:23;6.90;69.40
30174;DHT22;16985;50.814;8.530;2023-04-03T16:55:50;6.80;69.60
30174;DHT22;16985;50.814;8.530;2023-04-03T16:58:16;6.80;70.40
30174;DHT22;16985;50.814;8.530;2023-04-03T17:00:42;6.70;70.20
30174;DHT22;16985;50.814;8.530;2023-04-03T17:03:08;6.60;70.50
30174;DHT22;16985;50.814;8.530;2023-04-03T17:05:35;8.00;71.70
30174;DHT22;16985;50.814;8.530;2023-04-03T17:08:01;6.50;71.80
30174;DHT22;16985;50.814;8.530;2023-04-03T17:10:28;6.50;72.00
30174;DHT22;16985;50.814;8.530;2023-04-03T17:12:54;6.40;72.30
30174;DHT22;16985;50.814;8.530;2023-04-03T17:15:20;6.30;72.30
30174;DHT22;16985;50.814;8.530;2023-04-03T17:17:47;6.30;72.50
30174;DHT22;16985;50.814;8.530;2023-04-03T17:20:14;6.20;72.60
30174;DHT22;16985;50.814;8.530;2023-04-03T17:22:40;6.10;72.60
30174;DHT22;16985;50.814;8.530;2023-04-03T17:25:06;6.00;72.40
30174;DHT22;16985;50.814;8.530;2023-04-03T17:27:32;5.90;72.30
30174;DHT22;16985;50.814;8.530;2023-04-03T17:29:58;5.90;72.20
30174;DHT22;16985;50.814;8.530;2023-04-03T17:32:24;5.80;72.80
30174;DHT22;16985;50.814;8.530;2023-04-03T17:34:50;5.70;73.10
30174;DHT22;16985;50.814;8.530;2023-04-03T17:37:16;5.70;73.00
30174;DHT22;16985;50.814;8.530;2023-04-03T17:39:42;5.60;73.60
30174;DHT22;16985;50.814;8.530;2023-04-03T17:42:08;5.60;73.60
30174;DHT22;16985;50.814;8.530;2023-04-03T17:44:33;5.50;73.30
30174;DHT22;16985;50.814;8.530;2023-04-03T17:46:59;5.50;73.60
30174;DHT22;16985;50.814;8.530;2023-04-03T17:49:26;5.40;73.90
30174;DHT22;16985;50.814;8.530;2023-04-03T17:51:51;5.30;73.60
30174;DHT22;16985;50.814;8.530;2023-04-03T17:54:18;5.00;74.20
30174;DHT22;16985;50.814;8.530;2023-04-03T17:56:44;5.20;74.70
30174;DHT22;16985;50.814;8.530;2023-04-03T17:59:16;5.20;74.70